Time;durP1;ratioP1;P1;durP2;ratioP2;P2;SDS_P1;SDS_P2;PMS_P1;PMS_P2;Temp;Humidity;BMP_temperature;BMP_pressure;BME280_temperature;BME280_humidity;BME280_pressure;Samples;Min_cycle;Max_cycle;Signal;HPM_P1;HPM_P2
2021/05/22 00:00:47;;;;;;;7.30;2.95;;;;;;;13.31;75.23;97893.66;4979480;28;20069;-62
2021/05/22 00:03:13;;;;;;;8.25;2.95;;;;;;;13.36;76.98;97909.56;4969294;28;20414;-60
2021/05/22 00:05:39;;;;;;;9.15;3.40;;;;;;;13.05;77.84;97895.66;4988904;28;20042;-61
2021/05/22 00:08:04;;;;;;;6.60;2.88;;;;;;;12.95;77.70;97891.69;4985341;28;20030;-61
2021/05/22 00:10:30;;;;;;;9.70;3.63;;;;;;;13.11;78.38;97893.34;4984565;28;20030;-62
2021/05/22 00:12:56;;;;;;;9.30;3.13;;;;;;;13.02;78.45;97890.00;4980924;28;20037;-62
2021/05/22 00:15:22;;;;;;;8.00;2.95;;;;;;;12.86;78.48;97889.13;4980847;28;20038;-61
2021/05/22 00:17:47;;;;;;;8.02;3.10;;;;;;;12.97;79.05;97905.34;4968045;28;20085;-62
2021/05/22 00:20:14;;;;;;;8.32;2.90;;;;;;;12.96;78.58;97903.72;4986188;28;20116;-62
2021/05/22 00:22:41;;;;;;;6.60;2.75;;;;;;;12.89;79.54;97886.19;4984108;28;20126;-62
2021/05/22 00:25:07;;;;;;;7.28;2.65;;;;;;;12.97;78.63;97880.06;4981707;28;20034;-62
2021/05/22 00:27:33;;;;;;;7.97;2.97;;;;;;;12.91;79.47;97839.03;4983233;28;20057;-62
2021/05/22 00:29:58;;;;;;;9.95;3.20;;;;;;;13.21;79.61;97893.88;4967824;28;20065;-62
2021/05/22 00:32:24;;;;;;;8.02;2.88;;;;;;;13.16;78.86;97885.75;4980381;28;20034;-61
2021/05/22 00:34:49;;;;;;;8.23;2.80;;;;;;;13.31;79.11;97891.03;4965598;28;20149;-62
2021/05/22 00:37:15;;;;;;;5.63;2.60;;;;;;;13.16;78.59;97876.16;4999209;28;20044;-62
2021/05/22 00:39:41;;;;;;;6.88;2.63;;;;;;;12.85;78.32;97858.81;4961915;28;20030;-62
2021/05/22 00:42:06;;;;;;;8.10;3.08;;;;;;;13.05;77.75;97869.56;4980861;28;20053;-62
2021/05/22 00:44:33;;;;;;;9.45;2.70;;;;;;;13.12;77.16;97876.66;4997360;28;20090;-61
2021/05/22 00:47:02;;;;;;;9.73;2.50;;;;;;;13.06;75.51;97871.16;4966521;28;20488;-62
2021/05/22 00:49:28;;;;;;;8.27;2.63;;;;;;;13.26;76.73;97879.28;4970467;28;20026;-62
2021/05/22 00:51:54;;;;;;;10.98;2.60;;;;;;;13.19;78.88;97852.28;4996844;28;20045;-62
2021/05/22 00:54:19;;;;;;;6.75;2.28;;;;;;;13.18;76.29;97842.00;4985268;28;20141;-62
2021/05/22 00:56:46;;;;;;;6.85;2.30;;;;;;;13.32;75.79;97861.31;4995003;28;20034;-61
2021/05/22 00:59:14;;;;;;;7.00;2.50;;;;;;;13.42;76.37;97859.25;4980619;28;20100;-61
2021/05/22 01:01:39;;;;;;;5.28;1.98;;;;;;;13.16;75.83;97857.88;4980441;28;20030;-61
2021/05/22 01:04:05;;;;;;;7.82;2.65;;;;;;;13.16;77.13;97857.03;4986778;28;20029;-61
2021/05/22 01:06:32;;;;;;;6.78;1.85;;;;;;;13.17;72.75;97864.69;4984258;28;20497;-61
2021/05/22 01:09:07;;;;;;;6.28;2.08;;;;;;;13.05;74.50;97840.03;4966431;28;20038;-61
2021/05/22 01:11:43;;;;;;;7.95;2.25;;;;;;;13.27;73.54;97869.66;4983420;28;20034;-62
2021/05/22 01:14:22;;;;;;;8.13;2.25;;;;;;;12.86;75.46;97838.75;4961864;28;20034;-61
2021/05/22 01:16:51;;;;;;;9.40;2.35;;;;;;;12.93;76.55;97865.75;4979283;28;20044;-61
2021/05/22 01:19:26;;;;;;;8.20;2.17;;;;;;;12.75;76.07;97826.97;4981234;28;20519;-60
2021/05/22 01:21:53;;;;;;;7.10;2.50;;;;;;;13.23;76.72;97876.22;4995533;28;20482;-61
2021/05/22 01:24:22;;;;;;;5.60;2.10;;;;;;;13.31;77.33;97884.00;4998431;28;20041;-61
2021/05/22 01:26:47;;;;;;;7.05;2.35;;;;;;;13.15;78.01;97871.91;4994084;28;20037;-61
2021/05/22 01:29:13;;;;;;;8.15;2.75;;;;;;;13.25;78.01;97872.47;4981030;28;20042;-61
2021/05/22 01:31:38;;;;;;;7.45;2.20;;;;;;;12.92;78.67;97877.16;4982532;28;20039;-61
2021/05/22 01:34:09;;;;;;;7.95;2.72;;;;;;;12.87;80.46;97888.16;4960727;28;20045;-61
2021/05/22 01:36:34;;;;;;;6.95;2.80;;;;;;;12.86;80.89;97909.19;4964870;28;20034;-62
2021/05/22 01:39:00;;;;;;;7.47;2.65;;;;;;;12.69;80.76;97926.78;4967227;28;20069;-62
2021/05/22 01:41:25;;;;;;;6.85;2.40;;;;;;;12.51;81.25;97934.91;4980159;28;20464;-62
2021/05/22 01:43:52;;;;;;;7.22;2.80;;;;;;;12.33;82.68;97961.25;4976346;28;20029;-62
2021/05/22 01:46:18;;;;;;;8.27;2.63;;;;;;;12.21;83.22;97962.59;4983133;28;20030;-62
2021/05/22 01:48:44;;;;;;;7.07;2.50;;;;;;;12.08;83.92;97964.00;4958294;28;20034;-61
2021/05/22 01:51:15;;;;;;;6.43;2.35;;;;;;;12.01;83.64;97983.88;4980469;28;20037;-61
2021/05/22 01:53:42;;;;;;;8.75;2.75;;;;;;;11.93;84.81;97983.91;5000229;28;20343;-61
2021/05/22 01:56:10;;;;;;;8.00;2.63;;;;;;;11.78;84.16;97981.16;4979207;28;20022;-62
2021/05/22 01:58:35;;;;;;;13.10;3.53;;;;;;;11.81;86.21;97993.03;4975818;28;20134;-64
2021/05/22 02:01:01;;;;;;;5.72;2.47;;;;;;;11.49;86.58;97953.88;4981891;28;20101;-60
2021/05/22 02:03:36;;;;;;;7.50;2.13;;;;;;;11.75;87.09;97997.09;4997664;28;20112;-61
2021/05/22 02:06:09;;;;;;;6.38;2.50;;;;;;;11.77;87.60;98000.34;4984151;28;20029;-59
2021/05/22 02:08:37;;;;;;;8.25;2.58;;;;;;;11.77;87.34;98002.97;4978534;28;20102;-60
2021/05/22 02:11:03;;;;;;;6.75;2.30;;;;;;;11.74;87.60;97993.69;4984247;28;20023;-61
2021/05/22 02:13:29;;;;;;;5.03;1.83;;;;;;;11.66;86.21;97970.28;4979943;28;20027;-60
2021/05/22 02:15:59;;;;;;;5.53;2.03;;;;;;;11.89;85.99;97995.63;4975682;28;20512;-61
2021/05/22 02:18:29;;;;;;;5.50;1.60;;;;;;;11.94;84.73;97975.13;4984215;28;20520;-62
2021/05/22 02:20:56;;;;;;;5.15;1.60;;;;;;;12.29;84.93;98017.31;4981939;28;20173;-60
2021/05/22 02:23:22;;;;;;;4.55;1.48;;;;;;;12.41;85.62;98013.34;5000230;28;20037;-62
2021/05/22 02:25:48;;;;;;;4.60;1.80;;;;;;;12.52;84.84;98024.38;4979148;28;20053;-60
2021/05/22 02:28:14;;;;;;;4.50;1.80;;;;;;;12.54;84.94;98032.81;4984066;28;20480;-61
2021/05/22 02:30:41;;;;;;;4.80;1.80;;;;;;;12.47;84.40;98037.94;4977267;28;20034;-61
2021/05/22 02:33:10;;;;;;;3.75;1.60;;;;;;;12.37;84.09;98024.28;5016555;28;20357;-62
2021/05/22 02:35:37;;;;;;;7.25;1.52;;;;;;;12.07;84.01;97979.78;4995315;28;20030;-62
2021/05/22 02:38:03;;;;;;;4.10;1.50;;;;;;;12.32;84.78;98037.84;4997813;28;20033;-62
2021/05/22 02:40:30;;;;;;;3.88;1.60;;;;;;;12.07;84.35;98022.28;4977917;28;20026;-62
2021/05/22 02:43:09;;;;;;;6.18;1.45;;;;;;;12.04;85.78;98043.47;4974114;28;20059;-62
2021/05/22 02:45:37;;;;;;;4.25;1.70;;;;;;;11.70;86.14;98043.66;4965419;28;20045;-63
2021/05/22 02:48:04;;;;;;;5.47;2.00;;;;;;;11.63;86.79;98042.72;4975293;28;20247;-63
2021/05/22 02:50:31;;;;;;;5.18;1.90;;;;;;;11.60;87.62;98051.66;4981534;28;20027;-62
2021/05/22 02:52:57;;;;;;;4.50;1.90;;;;;;;11.51;88.25;98042.25;4967512;28;20160;-61
2021/05/22 02:55:24;;;;;;;3.55;1.30;;;;;;;11.33;87.05;98021.59;4979550;28;20626;-61
2021/05/22 02:57:49;;;;;;;3.75;1.50;;;;;;;11.57;87.53;98038.16;4979970;28;20044;-61
2021/05/22 03:00:15;;;;;;;3.97;1.27;;;;;;;11.60;87.49;98036.03;4984093;28;20026;-60
2021/05/22 03:02:41;;;;;;;4.45;1.70;;;;;;;11.41;87.19;98002.53;4984484;28;20035;-61
2021/05/22 03:05:07;;;;;;;3.85;1.38;;;;;;;11.82;87.64;98057.16;4982153;28;20907;-61
2021/05/22 03:07:34;;;;;;;5.22;1.90;;;;;;;11.54;88.04;98008.88;4983646;28;20037;-61
2021/05/22 03:09:59;;;;;;;5.18;1.58;;;;;;;11.74;87.72;98053.59;4982058;28;20484;-60
2021/05/22 03:12:28;;;;;;;3.90;1.50;;;;;;;11.40;87.91;98016.56;4978123;28;20088;-61
2021/05/22 03:14:54;;;;;;;7.53;1.80;;;;;;;11.61;87.49;98050.69;4979555;28;20073;-61
2021/05/22 03:17:19;;;;;;;3.38;1.48;;;;;;;11.56;85.79;98055.59;4983589;28;20564;-61
2021/05/22 03:19:45;;;;;;;5.93;1.25;;;;;;;11.54;85.07;98054.94;4986540;28;20116;-62
2021/05/22 03:22:11;;;;;;;4.50;1.05;;;;;;;11.59;86.44;98044.84;4982785;28;20032;-61
2021/05/22 03:24:36;;;;;;;3.28;1.10;;;;;;;11.32;85.79;98030.38;4979630;28;20030;-61
2021/05/22 03:27:02;;;;;;;3.90;1.15;;;;;;;11.26;86.34;98026.66;4982701;28;20030;-61
2021/05/22 03:29:27;;;;;;;4.00;1.20;;;;;;;11.49;85.87;98049.41;4977605;28;20019;-62
2021/05/22 03:31:53;;;;;;;3.75;1.05;;;;;;;11.47;85.64;98036.56;4975542;28;20061;-61
2021/05/22 03:34:18;;;;;;;3.70;1.05;;;;;;;11.50;84.85;98020.59;4995960;28;20144;-61
2021/05/22 03:36:44;;;;;;;3.78;1.15;;;;;;;11.44;85.69;98016.03;4979505;28;20034;-61
2021/05/22 03:39:10;;;;;;;4.53;0.80;;;;;;;11.48;84.25;98025.16;4982864;28;20108;-62
2021/05/22 03:41:35;;;;;;;2.95;0.80;;;;;;;11.37;83.12;98006.47;4982634;28;20461;-63
2021/05/22 03:44:01;;;;;;;2.15;0.60;;;;;;;11.15;83.87;97978.34;4979880;28;20045;-63
2021/05/22 03:46:26;;;;;;;3.75;0.60;;;;;;;11.35;84.39;97999.66;4981360;28;20031;-63
2021/05/22 03:48:51;;;;;;;5.53;0.65;;;;;;;11.26;83.77;97964.19;4985525;28;20030;-63
2021/05/22 03:51:17;;;;;;;2.17;0.63;;;;;;;11.04;83.90;97938.84;4985587;28;20030;-63
2021/05/22 03:53:43;;;;;;;3.20;0.60;;;;;;;10.74;83.52;97899.53;4986503;28;20028;-61
2021/05/22 03:56:08;;;;;;;4.13;0.70;;;;;;;11.07;84.80;97934.13;4982161;28;20171;-63
2021/05/22 03:58:33;;;;;;;3.67;0.60;;;;;;;11.16;84.25;97929.72;4985505;28;20190;-62
2021/05/22 04:00:59;;;;;;;3.17;0.60;;;;;;;11.36;84.73;97927.56;4978805;28;20152;-62
2021/05/22 04:03:24;;;;;;;4.72;0.73;;;;;;;11.47;84.32;97932.41;5008969;28;20093;-63
2021/05/22 04:05:50;;;;;;;3.65;1.13;;;;;;;11.62;83.98;97950.75;4978025;28;20034;-62
2021/05/22 04:08:16;;;;;;;2.50;0.70;;;;;;;11.72;85.01;97963.59;5000686;28;20056;-63
2021/05/22 04:10:41;;;;;;;2.30;0.57;;;;;;;11.72;84.36;97940.16;4969360;28;20045;-64
2021/05/22 04:13:07;;;;;;;1.33;0.40;;;;;;;11.67;83.61;97938.06;4979168;28;20142;-62
2021/05/22 04:15:33;;;;;;;3.13;0.52;;;;;;;11.38;81.82;97901.38;5001655;28;20034;-60
2021/05/22 04:17:58;;;;;;;2.88;0.70;;;;;;;11.29;82.17;97927.41;4983075;28;20026;-64
2021/05/22 04:20:24;;;;;;;1.00;0.40;;;;;;;11.50;82.35;97918.28;4985380;28;20026;-63
2021/05/22 04:22:49;;;;;;;3.20;0.95;;;;;;;11.52;82.89;97900.69;4985742;28;20068;-63
2021/05/22 04:25:15;;;;;;;2.53;0.50;;;;;;;11.60;81.95;97905.84;4967026;28;20038;-62
2021/05/22 04:27:40;;;;;;;1.75;0.60;;;;;;;11.69;83.51;97902.22;4984025;28;20030;-64
2021/05/22 04:30:06;;;;;;;4.28;0.75;;;;;;;11.83;83.67;97907.72;4985450;28;20041;-62
2021/05/22 04:32:32;;;;;;;2.10;0.73;;;;;;;11.88;84.21;97908.84;4979467;28;20040;-64
2021/05/22 04:34:57;;;;;;;3.45;0.70;;;;;;;11.56;83.40;97904.56;4976327;28;20026;-64
2021/05/22 04:37:23;;;;;;;4.07;0.60;;;;;;;11.19;83.19;97851.34;4988625;28;20034;-64
2021/05/22 04:39:49;;;;;;;2.13;0.60;;;;;;;11.62;83.31;97911.69;4960351;28;20090;-64
2021/05/22 04:42:14;;;;;;;1.30;0.47;;;;;;;11.70;83.24;97908.25;4964183;28;20291;-64
2021/05/22 04:44:40;;;;;;;2.13;0.50;;;;;;;11.63;82.86;97881.28;4986681;28;20481;-64
2021/05/22 04:47:05;;;;;;;2.03;0.50;;;;;;;11.95;83.21;97929.81;4981797;28;20034;-62
2021/05/22 04:49:31;;;;;;;2.13;0.60;;;;;;;11.82;82.89;97926.94;4985166;28;20422;-61
2021/05/22 04:51:56;;;;;;;3.25;0.60;;;;;;;11.83;83.18;97931.19;4983839;28;20030;-62
2021/05/22 04:54:22;;;;;;;2.33;0.68;;;;;;;11.79;83.55;97930.69;4968184;28;20050;-64
2021/05/22 04:56:47;;;;;;;2.33;0.80;;;;;;;11.84;83.11;97953.63;4979492;28;20081;-64
2021/05/22 04:59:13;;;;;;;2.78;0.90;;;;;;;11.79;83.25;97946.31;4978787;28;20034;-64
2021/05/22 05:01:40;;;;;;;3.22;0.95;;;;;;;11.88;83.02;97955.72;4966091;28;20079;-63
2021/05/22 05:04:08;;;;;;;3.85;0.90;;;;;;;11.98;83.09;97958.16;4981624;28;20054;-63
2021/05/22 05:06:34;;;;;;;4.03;0.85;;;;;;;11.79;82.03;97943.72;4982821;28;20073;-61
2021/05/22 05:09:00;;;;;;;3.88;0.75;;;;;;;11.93;81.94;97963.06;4958352;28;20560;-62
2021/05/22 05:11:26;;;;;;;1.83;0.50;;;;;;;11.92;82.73;97954.44;4977204;28;20041;-62
2021/05/22 05:13:51;;;;;;;1.70;0.60;;;;;;;12.04;81.72;97956.66;4992607;28;20222;-64
2021/05/22 05:16:17;;;;;;;1.50;0.50;;;;;;;11.84;81.46;97957.03;4965248;28;20401;-62
2021/05/22 05:18:42;;;;;;;2.40;0.60;;;;;;;11.65;81.73;97958.25;4976616;28;20036;-61
2021/05/22 05:21:08;;;;;;;2.35;0.50;;;;;;;11.81;82.84;97974.78;4969211;28;20031;-62
2021/05/22 05:23:37;;;;;;;1.65;0.40;;;;;;;11.77;81.94;97989.94;4978838;28;20030;-61
2021/05/22 05:26:03;;;;;;;2.97;0.63;;;;;;;11.72;82.36;97990.44;5009601;28;20142;-62
2021/05/22 05:28:29;;;;;;;2.40;0.63;;;;;;;11.81;81.81;98006.03;4964275;28;20046;-60
2021/05/22 05:30:55;;;;;;;3.22;0.77;;;;;;;11.74;81.53;97969.47;4991386;28;20225;-62
2021/05/22 05:33:20;;;;;;;3.65;0.85;;;;;;;11.80;81.40;97965.38;4969360;28;20058;-62
2021/05/22 05:35:47;;;;;;;2.25;0.60;;;;;;;12.18;82.28;98021.09;4972148;28;20034;-61
2021/05/22 05:38:12;;;;;;;2.55;0.70;;;;;;;12.17;79.76;98008.25;4976213;28;20128;-62
2021/05/22 05:40:38;;;;;;;2.03;0.95;;;;;;;12.15;81.05;98036.25;4964749;28;20113;-60
2021/05/22 05:43:09;;;;;;;2.35;0.70;;;;;;;11.92;81.79;98032.59;4973721;28;20130;-61
2021/05/22 05:45:34;;;;;;;2.30;0.70;;;;;;;11.99;81.30;98040.56;4974089;28;20027;-60
2021/05/22 05:47:59;;;;;;;2.90;0.85;;;;;;;11.98;82.56;98053.75;4973853;28;20100;-61
2021/05/22 05:50:25;;;;;;;2.15;0.52;;;;;;;11.86;81.91;98071.47;4975423;28;20579;-60
2021/05/22 05:52:51;;;;;;;2.80;0.82;;;;;;;11.84;82.09;98086.47;4978745;28;20045;-61
2021/05/22 05:55:17;;;;;;;2.05;0.63;;;;;;;11.68;81.91;98085.53;4981751;28;20030;-60
2021/05/22 05:57:42;;;;;;;2.97;0.60;;;;;;;11.79;81.82;98091.34;4975442;28;20525;-60
2021/05/22 06:00:08;;;;;;;2.88;0.70;;;;;;;11.71;80.50;98105.19;4983074;28;20036;-61
2021/05/22 06:02:34;;;;;;;2.53;0.73;;;;;;;11.90;81.67;98119.69;4957187;28;20030;-61
2021/05/22 06:04:59;;;;;;;2.65;0.60;;;;;;;11.94;81.15;98121.00;4975660;28;20057;-60
2021/05/22 06:07:24;;;;;;;2.83;0.60;;;;;;;11.88;80.78;98119.00;4980764;28;20038;-60
2021/05/22 06:09:50;;;;;;;2.95;0.57;;;;;;;11.96;80.01;98123.47;4990779;28;20037;-59
2021/05/22 06:12:16;;;;;;;3.17;0.70;;;;;;;11.92;80.43;98117.75;4998961;28;20036;-60
2021/05/22 06:14:45;;;;;;;3.95;0.70;;;;;;;12.12;79.82;98120.81;4969162;28;20034;-60
2021/05/22 06:17:11;;;;;;;4.18;0.90;;;;;;;11.88;80.47;98077.34;4981031;28;20048;-60
2021/05/22 06:19:37;;;;;;;2.78;0.75;;;;;;;12.15;79.69;98093.59;4979760;28;20034;-60
2021/05/22 06:22:03;;;;;;;2.63;0.77;;;;;;;12.44;79.83;98129.50;4969693;28;20507;-61
2021/05/22 06:24:28;;;;;;;3.05;0.70;;;;;;;12.42;78.96;98115.84;4969449;28;20037;-61
2021/05/22 06:26:54;;;;;;;1.95;0.50;;;;;;;12.39;79.53;98085.69;4965361;28;20213;-61
2021/05/22 06:29:20;;;;;;;2.92;0.70;;;;;;;12.71;79.14;98140.50;4978497;28;20026;-61
2021/05/22 06:31:45;;;;;;;2.05;0.60;;;;;;;12.79;78.03;98138.66;4976773;28;20124;-60
2021/05/22 06:34:11;;;;;;;2.25;0.70;;;;;;;12.92;77.80;98147.72;4981536;28;20045;-60
2021/05/22 06:36:36;;;;;;;1.40;0.60;;;;;;;12.98;77.51;98132.22;4971753;28;20057;-60
2021/05/22 06:39:03;;;;;;;2.38;0.60;;;;;;;12.64;76.55;98089.00;4976612;28;20054;-59
2021/05/22 06:41:28;;;;;;;2.67;0.70;;;;;;;12.51;76.21;98080.94;4962965;28;20034;-60
2021/05/22 06:43:54;;;;;;;1.45;0.57;;;;;;;12.79;78.39;98130.03;4959554;28;20022;-61
2021/05/22 06:48:45;;;;;;;1.88;0.50;;;;;;;12.62;77.48;98116.25;4977729;28;20030;-61
2021/05/22 06:51:11;;;;;;;2.03;0.63;;;;;;;12.38;78.16;98075.44;4981969;28;20026;-60
2021/05/22 06:53:36;;;;;;;2.05;0.60;;;;;;;12.69;79.99;98119.81;4977938;28;20026;-60
2021/05/22 06:56:03;;;;;;;2.45;0.60;;;;;;;12.78;77.10;98131.03;4990093;28;20038;-60
2021/05/22 06:58:28;;;;;;;2.63;0.70;;;;;;;12.74;75.50;98112.28;4973171;28;20064;-61
2021/05/22 07:00:55;;;;;;;2.22;0.70;;;;;;;12.80;76.53;98127.25;4976759;28;20473;-60
2021/05/22 07:03:20;;;;;;;2.53;0.80;;;;;;;12.78;76.09;98126.63;4981520;28;20049;-60
2021/05/22 07:05:45;;;;;;;1.92;0.63;;;;;;;12.74;75.89;98122.72;4975749;28;20524;-61
2021/05/22 07:08:11;;;;;;;2.28;0.70;;;;;;;12.83;76.53;98121.69;4988003;28;20092;-60
2021/05/22 07:10:36;;;;;;;1.98;0.60;;;;;;;12.91;74.65;98120.03;4978195;28;20473;-60
2021/05/22 07:13:05;;;;;;;2.08;0.60;;;;;;;12.82;75.66;98109.63;4981053;28;20034;-60
2021/05/22 07:15:30;;;;;;;1.50;0.45;;;;;;;12.69;75.27;98065.03;4980216;28;20137;-60
2021/05/22 07:17:56;;;;;;;2.88;0.80;;;;;;;12.91;76.42;98093.94;4954299;28;20067;-60
2021/05/22 07:20:22;;;;;;;1.95;0.60;;;;;;;12.94;76.34;98111.84;4989106;28;20412;-60
2021/05/22 07:22:50;;;;;;;3.28;0.65;;;;;;;12.98;76.61;98098.28;4975473;28;20550;-60
2021/05/22 07:25:17;;;;;;;2.40;0.75;;;;;;;13.06;75.63;98116.50;4965624;28;20437;-60
2021/05/22 07:27:43;;;;;;;2.65;0.70;;;;;;;13.09;75.60;98115.34;4993138;28;20556;-61
2021/05/22 07:30:11;;;;;;;1.73;0.60;;;;;;;12.99;74.28;98133.81;4966779;28;20026;-59
2021/05/22 07:32:40;;;;;;;1.65;0.52;;;;;;;13.11;72.56;98126.44;4981470;28;20508;-60
2021/05/22 07:35:07;;;;;;;3.35;0.95;;;;;;;13.07;72.67;98120.75;4983735;28;20030;-60
2021/05/22 07:37:33;;;;;;;2.92;0.60;;;;;;;13.06;73.92;98102.66;4985124;28;20041;-61
2021/05/22 07:39:59;;;;;;;1.73;0.50;;;;;;;13.22;73.00;98122.63;4980237;28;20105;-61
2021/05/22 07:42:25;;;;;;;2.05;0.70;;;;;;;13.11;71.76;98131.66;4979352;28;20092;-61
2021/05/22 07:44:55;;;;;;;1.98;0.52;;;;;;;13.06;72.72;98139.19;4967066;28;20610;-60
2021/05/22 07:47:21;;;;;;;2.90;0.70;;;;;;;13.14;73.38;98140.94;4977269;28;20053;-60
2021/05/22 07:49:47;;;;;;;2.25;0.50;;;;;;;13.17;71.51;98138.78;4982672;28;20417;-60
2021/05/22 07:52:12;;;;;;;2.30;0.50;;;;;;;12.85;72.29;98098.84;4996750;28;20318;-60
2021/05/22 07:54:39;;;;;;;0.95;0.43;;;;;;;13.05;72.31;98138.38;4984940;28;20493;-60
2021/05/22 07:57:07;;;;;;;1.75;0.60;;;;;;;12.94;73.04;98099.63;4983735;28;20108;-60
2021/05/22 07:59:32;;;;;;;1.58;0.55;;;;;;;13.31;72.44;98152.13;4983345;28;20069;-60
2021/05/22 08:01:59;;;;;;;2.50;0.50;;;;;;;13.22;72.95;98148.72;4987393;28;20168;-60
2021/05/22 08:04:25;;;;;;;2.70;0.65;;;;;;;13.24;73.52;98144.94;4982089;28;20029;-59
2021/05/22 08:06:50;;;;;;;3.30;0.70;;;;;;;13.35;73.24;98142.97;4980538;28;20019;-60
2021/05/22 08:09:16;;;;;;;2.92;0.55;;;;;;;13.34;68.63;98134.28;4974527;28;20022;-59
2021/05/22 08:11:42;;;;;;;2.05;0.55;;;;;;;13.41;69.02;98118.75;4965404;28;20018;-60
2021/05/22 08:14:07;;;;;;;1.67;0.50;;;;;;;13.59;69.94;98137.53;4980889;28;20041;-60
2021/05/22 08:16:34;;;;;;;2.58;0.52;;;;;;;13.72;69.77;98130.91;4986345;28;20634;-60
2021/05/22 08:18:59;;;;;;;1.33;0.50;;;;;;;13.80;70.34;98141.31;5011508;28;20026;-60
2021/05/22 08:21:25;;;;;;;1.50;0.50;;;;;;;13.50;68.65;98075.09;4980050;28;20018;-60
2021/05/22 08:23:51;;;;;;;3.42;0.80;;;;;;;13.98;68.46;98141.78;4961648;28;20061;-59
2021/05/22 08:26:16;;;;;;;1.77;0.43;;;;;;;13.94;66.29;98145.72;4961875;28;20018;-60
2021/05/22 08:28:42;;;;;;;1.40;0.40;;;;;;;13.99;66.74;98151.25;4967484;28;20034;-59
2021/05/22 08:31:07;;;;;;;1.55;0.40;;;;;;;14.04;68.58;98155.94;4977300;28;20689;-60
2021/05/22 08:33:33;;;;;;;1.42;0.45;;;;;;;14.15;69.75;98152.09;4985243;28;20027;-60
2021/05/22 08:35:58;;;;;;;1.48;0.40;;;;;;;14.36;68.50;98149.56;4976805;28;20386;-60
2021/05/22 08:38:23;;;;;;;2.00;0.40;;;;;;;14.29;66.41;98155.69;4981436;28;20113;-60
2021/05/22 08:40:49;;;;;;;0.85;0.30;;;;;;;13.88;66.40;98111.69;4985052;28;20080;-60
2021/05/22 08:43:15;;;;;;;1.00;0.38;;;;;;;13.82;65.64;98137.53;4965665;28;20030;-59
2021/05/22 08:45:40;;;;;;;1.73;0.50;;;;;;;13.82;67.27;98132.28;4979196;28;20724;-59
2021/05/22 08:48:06;;;;;;;1.75;0.65;;;;;;;13.77;67.38;98126.78;4963276;28;20032;-59
2021/05/22 08:50:32;;;;;;;1.30;0.40;;;;;;;13.79;68.43;98126.59;4967289;28;20026;-60
2021/05/22 08:52:58;;;;;;;1.23;0.40;;;;;;;13.79;68.27;98131.84;4982051;28;20026;-60
2021/05/22 08:55:23;;;;;;;1.77;0.40;;;;;;;13.75;68.63;98136.59;4981909;28;20041;-60
2021/05/22 08:57:49;;;;;;;1.48;0.50;;;;;;;13.88;68.05;98130.78;4974670;28;20037;-60
2021/05/22 09:00:18;;;;;;;2.13;0.50;;;;;;;13.78;67.50;98136.25;4979476;28;20034;-59
2021/05/22 09:02:44;;;;;;;1.55;0.40;;;;;;;13.51;67.64;98110.66;4997461;28;20033;-60
2021/05/22 09:05:25;;;;;;;1.55;0.50;;;;;;;13.79;67.09;98148.31;4976975;28;20084;-59
2021/05/22 09:07:56;;;;;;;0.75;0.30;;;;;;;13.64;66.59;98144.88;4980296;28;20050;-59
2021/05/22 09:10:33;;;;;;;1.33;0.50;;;;;;;13.69;67.50;98134.69;4984973;28;20057;-59
2021/05/22 09:13:09;;;;;;;1.98;0.50;;;;;;;13.60;67.71;98105.22;4979119;28;20141;-59
2021/05/22 09:15:37;;;;;;;3.03;0.80;;;;;;;13.94;67.91;98156.19;4965671;28;20042;-59
2021/05/22 09:18:10;;;;;;;4.28;0.75;;;;;;;14.00;70.08;98160.72;4976014;28;20046;-59
2021/05/22 09:20:49;;;;;;;1.35;0.50;;;;;;;14.08;67.80;98159.81;4972931;28;20077;-59
2021/05/22 09:23:25;;;;;;;2.75;0.50;;;;;;;14.23;68.20;98186.00;4971414;28;20038;-59
2021/05/22 09:26:02;;;;;;;10.18;2.35;;;;;;;14.22;70.64;98179.97;4980495;28;20121;-59
2021/05/22 09:28:35;;;;;;;5.07;1.30;;;;;;;14.33;68.89;98167.41;4989547;28;20065;-59
2021/05/22 09:31:01;;;;;;;1.92;0.50;;;;;;;14.46;66.34;98164.19;4980482;28;20026;-59
2021/05/22 09:33:30;;;;;;;1.58;0.40;;;;;;;14.55;63.41;98177.00;4963609;28;20576;-59
2021/05/22 09:35:56;;;;;;;0.93;0.50;;;;;;;14.43;63.44;98134.78;4978288;28;20030;-59
2021/05/22 09:38:44;;;;;;;1.13;0.40;;;;;;;14.78;62.89;98184.78;4983841;28;20034;-60
2021/05/22 09:41:24;;;;;;;2.00;0.50;;;;;;;14.66;61.45;98172.31;4976875;28;20282;-60
2021/05/22 09:44:10;;;;;;;2.22;0.50;;;;;;;14.45;62.05;98176.44;4973711;28;20030;-60
2021/05/22 09:46:38;;;;;;;1.15;0.40;;;;;;;14.47;62.99;98179.69;4987910;28;20255;-59
2021/05/22 09:49:05;;;;;;;1.95;0.50;;;;;;;14.22;61.99;98143.34;4980283;28;20030;-60
2021/05/22 09:51:31;;;;;;;1.23;0.40;;;;;;;14.10;60.81;98123.84;4979218;28;20045;-59
2021/05/22 09:53:56;;;;;;;1.83;0.50;;;;;;;14.53;60.73;98186.00;4982814;28;20030;-60
2021/05/22 09:56:26;;;;;;;1.27;0.40;;;;;;;14.40;60.97;98186.63;5000447;28;20050;-61
2021/05/22 09:58:59;;;;;;;1.92;0.55;;;;;;;14.61;63.82;98197.22;4981753;28;20033;-60
2021/05/22 10:01:32;;;;;;;1.60;0.50;;;;;;;14.82;62.08;98190.44;4975564;28;20724;-59
2021/05/22 10:04:20;;;;;;;2.33;0.60;;;;;;;14.89;62.77;98186.09;4979713;28;20062;-60
2021/05/22 10:06:46;;;;;;;2.17;0.55;;;;;;;14.99;64.66;98191.06;4979046;28;20372;-59
2021/05/22 10:09:16;;;;;;;1.98;0.63;;;;;;;15.18;63.26;98187.06;4981781;28;20828;-60
2021/05/22 10:12:01;;;;;;;1.77;0.60;;;;;;;15.40;62.30;98197.56;4975203;28;20030;-59
2021/05/22 10:14:31;;;;;;;3.22;0.90;;;;;;;15.41;63.10;98184.28;4973456;28;20473;-59
2021/05/22 10:16:57;;;;;;;;;;;;;;;15.53;62.59;98189.84;4974934;28;20038;-59
2021/05/22 10:19:23;;;;;;;4.22;1.20;;;;;;;15.60;63.48;98187.28;4972339;28;19927;-60
2021/05/22 10:21:49;;;;;;;4.15;1.30;;;;;;;15.18;62.06;98150.38;4983252;28;20026;-59
2021/05/22 10:24:14;;;;;;;6.07;1.20;;;;;;;15.17;64.30;98143.53;4978119;28;20817;-59
2021/05/22 10:26:40;;;;;;;4.03;1.30;;;;;;;15.58;65.26;98172.53;4985143;28;20749;-60
2021/05/22 10:29:06;;;;;;;6.55;2.22;;;;;;;15.54;64.77;98175.75;4977180;28;20484;-59
2021/05/22 10:31:41;;;;;;;6.78;2.17;;;;;;;15.64;65.59;98178.03;4966582;28;20129;-60
2021/05/22 10:34:17;;;;;;;5.97;2.63;;;;;;;15.62;64.53;98170.38;4984637;28;20136;-60
2021/05/22 10:36:47;;;;;;;8.30;2.80;;;;;;;15.52;64.13;98151.53;4978841;28;20027;-60
2021/05/22 10:39:32;;;;;;;9.05;3.30;;;;;;;15.67;64.93;98194.22;4987693;28;20058;-60
2021/05/22 10:41:57;;;;;;;7.47;3.97;;;;;;;15.64;64.24;98194.56;4978131;28;20049;-60
2021/05/22 10:44:35;;;;;;;8.52;4.07;;;;;;;15.66;64.23;98208.31;4976259;28;20043;-60
2021/05/22 10:47:14;;;;;;;11.07;3.78;;;;;;;15.60;65.21;98188.09;4981172;28;20052;-59
2021/05/22 10:49:59;;;;;;;9.55;3.90;;;;;;;15.62;65.05;98186.09;4966602;28;20031;-59
2021/05/22 10:52:27;;;;;;;8.95;4.38;;;;;;;15.49;64.55;98176.28;4982082;28;20588;-59
2021/05/22 10:54:56;;;;;;;7.75;4.38;;;;;;;15.66;65.29;98187.34;4978558;28;20089;-60
2021/05/22 10:57:22;;;;;;;7.32;3.97;;;;;;;15.84;64.27;98197.41;4975159;28;20031;-60
2021/05/22 11:00:16;;;;;;;8.45;3.95;;;;;;;15.98;64.36;98190.47;4977211;28;20756;-59
2021/05/22 11:02:45;;;;;;;10.60;4.38;;;;;;;15.67;64.32;98156.72;4982830;28;20034;-59
2021/05/22 11:05:28;;;;;;;10.03;4.67;;;;;;;15.92;63.65;98207.78;4975960;28;20033;-59
2021/05/22 11:08:03;;;;;;;15.93;5.50;;;;;;;15.84;64.47;98205.28;4978439;28;20030;-60
2021/05/22 11:10:36;;;;;;;13.07;4.72;;;;;;;15.68;64.82;98174.03;4978887;28;20543;-59
2021/05/22 11:13:06;;;;;;;9.52;4.85;;;;;;;15.89;63.86;98200.28;4977063;28;20023;-59
2021/05/22 11:15:40;;;;;;;11.07;4.78;;;;;;;15.70;64.83;98193.03;4983063;28;20034;-59
2021/05/22 11:18:07;;;;;;;10.40;4.38;;;;;;;15.44;64.29;98154.28;4983473;28;20048;-59
2021/05/22 11:20:33;;;;;;;9.75;3.90;;;;;;;15.77;62.93;98180.84;4985714;28;20212;-59
2021/05/22 11:23:02;;;;;;;11.55;3.80;;;;;;;15.93;63.46;98182.34;4983442;28;20026;-59
2021/05/22 11:25:52;;;;;;;8.55;3.95;;;;;;;16.18;63.31;98159.16;4989439;28;20038;-60
2021/05/22 11:28:22;;;;;;;8.63;3.55;;;;;;;16.40;62.83;98167.75;4979758;28;20575;-59
2021/05/22 11:30:55;;;;;;;10.05;3.85;;;;;;;16.55;61.73;98172.88;4958715;28;20117;-59
2021/05/22 11:33:20;;;;;;;8.15;3.90;;;;;;;16.29;62.31;98142.06;4978161;28;20320;-59
2021/05/22 11:35:48;;;;;;;9.95;4.00;;;;;;;16.46;61.66;98169.59;4970779;28;20656;-59
2021/05/22 11:38:17;;;;;;;10.90;3.72;;;;;;;16.32;60.46;98132.00;4993395;28;20091;-59